Acton, Massachusetts
Current Conditions -  °F | °C
As of 7:56 AM on Monday 29 Dec 2014 (Local Time) from KBED Reporting Station
Scattered Clouds Scattered Clouds  
Wind Chill: 28°   Ceiling: Unl
Heat Index: 28°   Visibility: 10mi
Dew Point: 22°   Wind: 3mph
Humidity: 78%   Direction: 260°W
Pressure: 30.1"   Gusts: NA
Location:  42.49°N, 71.43°W
Report Text: KBED 291256Z 26003KT 10SM SCT200 M02/M06 A3010 RMK AO2 SLP210 T10221056
Loading
Personal Weather Stations






























Interactive Weather Map New forecast layout! Learn more

10-Day Weather Forecast

Advertisements
Track Severe Weather on mobile